createdAt,value
2018-03-27T00:00:08.922Z,10.46
2018-03-27T00:01:07.934Z,10.44
2018-03-27T00:02:07.784Z,10.42
2018-03-27T00:03:08.345Z,10.40
2018-03-27T00:04:07.810Z,10.39
2018-03-27T00:05:07.718Z,10.38
2018-03-27T00:06:07.814Z,10.38
2018-03-27T00:07:07.834Z,10.38
2018-03-27T00:08:07.742Z,10.40
2018-03-27T00:09:07.839Z,10.42
2018-03-27T00:10:07.867Z,10.45
2018-03-27T00:11:07.846Z,10.47
2018-03-27T00:12:07.750Z,10.49
2018-03-27T00:13:07.874Z,10.52
2018-03-27T00:14:07.879Z,10.53
2018-03-27T00:15:07.886Z,10.54
2018-03-27T00:16:07.782Z,10.53
2018-03-27T00:17:07.798Z,10.51
2018-03-27T00:18:07.799Z,10.50
2018-03-27T00:19:07.806Z,10.50
2018-03-27T00:20:07.825Z,10.51
2018-03-27T00:21:07.812Z,10.52
2018-03-27T00:22:07.830Z,10.49
2018-03-27T00:23:07.850Z,10.49
2018-03-27T00:24:07.837Z,10.51
2018-03-27T00:25:07.851Z,10.52
2018-03-27T00:26:07.859Z,10.54
2018-03-27T00:27:07.857Z,10.56
2018-03-27T00:28:07.962Z,10.59
2018-03-27T00:29:07.878Z,10.62
2018-03-27T00:30:07.881Z,10.64
2018-03-27T00:31:07.814Z,10.67
2018-03-27T00:32:07.798Z,10.69
2018-03-27T00:33:07.854Z,10.68
2018-03-27T00:34:07.810Z,10.68
2018-03-27T00:35:07.818Z,10.69
2018-03-27T00:36:07.833Z,10.69
2018-03-27T00:37:07.838Z,10.68
2018-03-27T00:38:07.837Z,10.68
2018-03-27T00:39:07.854Z,10.64
2018-03-27T00:40:07.859Z,10.59
2018-03-27T00:41:07.915Z,10.55
2018-03-27T00:42:07.879Z,10.51
2018-03-27T00:43:07.874Z,10.52
2018-03-27T00:44:07.886Z,10.52
2018-03-27T00:45:07.931Z,10.51
2018-03-27T00:46:07.698Z,10.52
2018-03-27T00:47:07.801Z,10.50
2018-03-27T00:48:07.808Z,10.52
2018-03-27T00:49:07.825Z,10.51
2018-03-27T00:50:07.839Z,10.51
2018-03-27T00:51:07.835Z,10.47
2018-03-27T00:52:07.844Z,10.40
2018-03-27T00:53:07.851Z,10.36
2018-03-27T00:54:07.854Z,10.32
2018-03-27T00:55:07.865Z,10.28
2018-03-27T00:56:07.873Z,10.24
2018-03-27T00:57:07.877Z,10.21
2018-03-27T00:58:07.891Z,10.22
2018-03-27T00:59:07.889Z,10.22
2018-03-27T01:00:09.037Z,10.21
2018-03-27T01:01:07.904Z,10.18
2018-03-27T01:02:07.877Z,10.15
2018-03-27T01:03:07.814Z,10.08
2018-03-27T01:04:07.826Z,10.03
2018-03-27T01:05:07.825Z,9.96
2018-03-27T01:06:07.873Z,9.88
2018-03-27T01:07:07.845Z,9.83
2018-03-27T01:08:07.857Z,9.81
2018-03-27T01:09:07.857Z,9.77
2018-03-27T01:10:07.873Z,9.73
2018-03-27T01:11:07.760Z,9.70
2018-03-27T01:12:10.511Z,9.67
2018-03-27T01:13:07.788Z,9.67
2018-03-27T01:14:07.900Z,9.67
2018-03-27T01:15:07.811Z,9.68
2018-03-27T01:16:07.815Z,9.68
2018-03-27T01:17:07.817Z,9.68
2018-03-27T01:18:07.927Z,9.69
2018-03-27T01:19:07.830Z,9.71
2018-03-27T01:20:07.842Z,9.74
2018-03-27T01:21:07.853Z,9.75
2018-03-27T01:22:07.859Z,9.76
2018-03-27T01:23:07.875Z,9.79
2018-03-27T01:24:07.874Z,9.81
2018-03-27T01:25:07.877Z,9.84
2018-03-27T01:26:07.784Z,9.87
2018-03-27T01:27:07.885Z,9.88
2018-03-27T01:28:07.897Z,9.90
2018-03-27T01:29:20.493Z,9.90
2018-03-27T01:30:20.495Z,9.88
2018-03-27T01:31:21.052Z,9.90
2018-03-27T01:32:25.516Z,9.91
2018-03-27T01:33:16.987Z,9.91
2018-03-27T01:34:07.848Z,9.88
2018-03-27T01:35:07.839Z,9.83
2018-03-27T01:36:07.754Z,9.80
2018-03-27T01:37:10.831Z,9.77
2018-03-27T01:38:07.865Z,9.73
2018-03-27T01:39:07.765Z,9.71
2018-03-27T01:40:07.885Z,9.69
2018-03-27T01:41:07.849Z,9.69
2018-03-27T01:42:07.899Z,9.71
2018-03-27T01:43:07.920Z,9.72
2018-03-27T01:44:10.474Z,9.73
2018-03-27T01:45:07.917Z,9.71
2018-03-27T01:46:07.937Z,9.67
2018-03-27T01:47:07.834Z,9.61
2018-03-27T01:48:07.939Z,9.55
2018-03-27T01:49:10.861Z,9.50
2018-03-27T01:50:07.863Z,9.46
2018-03-27T01:51:10.327Z,9.41
2018-03-27T01:52:07.866Z,9.38
2018-03-27T01:53:07.873Z,9.34
2018-03-27T01:54:07.886Z,9.31
2018-03-27T01:55:07.898Z,9.27
2018-03-27T01:56:07.906Z,9.26
2018-03-27T01:57:07.904Z,9.24
2018-03-27T01:58:07.922Z,9.22
2018-03-27T01:59:07.925Z,9.21
2018-03-27T02:00:09.063Z,9.20
2018-03-27T02:01:07.826Z,9.21
2018-03-27T02:02:07.837Z,9.19
2018-03-27T02:03:07.944Z,9.15
2018-03-27T02:04:07.850Z,9.11
2018-03-27T02:05:07.883Z,9.08
2018-03-27T02:06:10.417Z,9.05
2018-03-27T02:07:07.869Z,9.03
2018-03-27T02:08:07.886Z,9.01
2018-03-27T02:09:07.889Z,9.02
2018-03-27T02:10:07.892Z,9.03
2018-03-27T02:12:28.418Z,9.05
2018-03-27T02:13:28.397Z,9.04
2018-03-27T02:14:28.410Z,9.01
2018-03-27T02:15:28.411Z,9.00
2018-03-27T02:16:28.431Z,8.98
2018-03-27T02:17:28.428Z,8.98
2018-03-27T02:18:28.434Z,8.97
2018-03-27T02:19:28.342Z,8.95
2018-03-27T02:20:28.353Z,8.91
2018-03-27T02:21:28.350Z,8.89
2018-03-27T02:22:28.364Z,8.89
2018-03-27T02:23:28.478Z,8.90
2018-03-27T02:24:28.369Z,8.92
2018-03-27T02:25:28.381Z,8.92
2018-03-27T02:26:28.395Z,8.92
2018-03-27T02:27:28.404Z,8.90
2018-03-27T02:28:28.412Z,8.86
2018-03-27T02:29:30.834Z,8.86
2018-03-27T02:30:28.418Z,8.87
2018-03-27T02:31:28.435Z,8.88
2018-03-27T02:32:28.326Z,8.88
2018-03-27T02:33:28.439Z,8.89
2018-03-27T02:34:28.342Z,8.91
2018-03-27T02:35:28.468Z,8.93
2018-03-27T02:36:28.455Z,8.92
2018-03-27T02:37:28.266Z,8.92
2018-03-27T02:38:28.388Z,8.91
2018-03-27T02:39:28.382Z,8.92
2018-03-27T02:40:28.387Z,8.92
2018-03-27T02:41:29.720Z,8.93
2018-03-27T02:42:28.434Z,8.93
2018-03-27T02:43:28.406Z,8.95
2018-03-27T02:44:28.422Z,8.97
2018-03-27T02:45:28.443Z,8.98
2018-03-27T02:46:28.494Z,9.00
2018-03-27T02:47:28.443Z,9.00
2018-03-27T02:48:28.460Z,9.00
2018-03-27T02:49:28.460Z,9.01
2018-03-27T02:50:28.459Z,9.01
2018-03-27T02:51:28.290Z,9.03
2018-03-27T02:52:28.385Z,9.05
2018-03-27T02:53:28.392Z,9.05
2018-03-27T02:54:28.520Z,9.07
2018-03-27T02:55:28.409Z,9.09
2018-03-27T02:56:28.413Z,9.10
2018-03-27T02:57:28.417Z,9.12
2018-03-27T02:58:28.428Z,9.12
2018-03-27T02:59:28.430Z,9.12
2018-03-27T03:00:28.440Z,9.11
2018-03-27T03:01:28.454Z,9.11
2018-03-27T03:02:28.446Z,9.11
2018-03-27T03:03:28.350Z,9.10
2018-03-27T03:04:28.470Z,9.11
2018-03-27T03:05:28.479Z,9.10
2018-03-27T03:06:28.472Z,9.10
2018-03-27T03:07:28.382Z,9.09
2018-03-27T03:08:28.399Z,9.09
2018-03-27T03:09:28.390Z,9.09
2018-03-27T03:10:28.293Z,9.09
2018-03-27T03:11:29.650Z,9.09
2018-03-27T03:12:28.413Z,9.10
2018-03-27T03:13:28.422Z,9.11
2018-03-27T03:14:28.438Z,9.12
2018-03-27T03:15:28.433Z,9.14
2018-03-27T03:16:31.630Z,9.09
2018-03-27T03:17:28.458Z,9.04
2018-03-27T03:18:28.459Z,9.01
2018-03-27T03:19:28.466Z,9.03
2018-03-27T03:20:28.514Z,9.02
2018-03-27T03:21:28.478Z,9.01
2018-03-27T03:22:28.382Z,9.00
2018-03-27T03:23:28.398Z,8.99
2018-03-27T03:24:28.402Z,8.98
2018-03-27T03:25:28.401Z,8.97
2018-03-27T03:26:28.414Z,8.95
2018-03-27T03:27:28.425Z,8.93
2018-03-27T03:28:28.438Z,8.90
2018-03-27T03:29:28.434Z,8.88
2018-03-27T03:30:28.455Z,8.86
2018-03-27T03:31:28.451Z,8.83
2018-03-27T03:32:28.458Z,8.82
2018-03-27T03:33:28.465Z,8.82
2018-03-27T03:34:28.474Z,8.78
2018-03-27T03:35:28.477Z,8.76
2018-03-27T03:36:28.493Z,8.73
2018-03-27T03:37:28.403Z,8.72
2018-03-27T03:38:29.014Z,8.72
2018-03-27T03:39:28.405Z,8.74
2018-03-27T03:40:28.517Z,8.74
2018-03-27T03:41:28.416Z,8.76
2018-03-27T03:42:28.336Z,8.76
2018-03-27T03:43:31.206Z,8.75
2018-03-27T03:44:28.438Z,8.69
2018-03-27T03:45:28.449Z,8.65
2018-03-27T03:46:28.456Z,8.63
2018-03-27T03:47:28.466Z,8.63
2018-03-27T03:48:28.470Z,8.63
2018-03-27T03:49:28.485Z,8.65
2018-03-27T03:50:28.491Z,8.66
2018-03-27T03:51:28.493Z,8.67
2018-03-27T03:52:28.402Z,8.68
2018-03-27T03:53:28.416Z,8.70
2018-03-27T03:54:28.410Z,8.73
2018-03-27T03:55:28.417Z,8.72
2018-03-27T03:56:28.443Z,8.72
2018-03-27T03:57:28.429Z,8.70
2018-03-27T03:58:28.447Z,8.71
2018-03-27T03:59:28.449Z,8.69
2018-03-27T04:00:29.535Z,8.70
2018-03-27T04:01:28.465Z,8.71
2018-03-27T04:02:28.486Z,8.70
2018-03-27T04:03:28.478Z,8.69
2018-03-27T04:04:28.485Z,8.69
2018-03-27T04:05:28.498Z,8.68
2018-03-27T04:06:28.509Z,8.67
2018-03-27T04:07:28.411Z,8.65
2018-03-27T04:08:28.409Z,8.64
2018-03-27T04:09:28.421Z,8.65
2018-03-27T04:10:29.041Z,8.65
2018-03-27T04:11:29.670Z,8.64
2018-03-27T04:12:28.451Z,8.65
2018-03-27T04:13:28.455Z,8.64
2018-03-27T04:14:28.462Z,8.63
2018-03-27T04:15:28.461Z,8.63
2018-03-27T04:16:28.482Z,8.63
2018-03-27T04:17:28.486Z,8.63
2018-03-27T04:18:28.389Z,8.64
2018-03-27T04:19:28.489Z,8.65
2018-03-27T04:20:28.501Z,8.65
2018-03-27T04:21:28.518Z,8.66
2018-03-27T04:22:28.509Z,8.67
2018-03-27T04:23:28.426Z,8.67
2018-03-27T04:24:28.425Z,8.67
2018-03-27T04:25:28.443Z,8.68
2018-03-27T04:26:28.365Z,8.68
2018-03-27T04:27:28.447Z,8.69
2018-03-27T04:28:28.473Z,8.70
2018-03-27T04:29:31.102Z,8.71
2018-03-27T04:30:28.473Z,8.73
2018-03-27T04:31:28.496Z,8.75
2018-03-27T04:32:28.483Z,8.75
2018-03-27T04:33:28.526Z,8.75
2018-03-27T04:34:28.515Z,8.75
2018-03-27T04:35:28.506Z,8.77
2018-03-27T04:36:28.515Z,8.77
2018-03-27T04:37:28.526Z,8.79
2018-03-27T04:38:28.439Z,8.81
2018-03-27T04:39:28.428Z,8.85
2018-03-27T04:40:28.332Z,8.86
2018-03-27T04:41:28.449Z,8.87
2018-03-27T04:42:28.355Z,8.88
2018-03-27T04:43:28.467Z,8.87
2018-03-27T04:44:28.474Z,8.87
2018-03-27T04:45:28.555Z,8.86
2018-03-27T04:46:28.487Z,8.83
2018-03-27T04:47:28.494Z,8.79
2018-03-27T04:48:28.503Z,8.75
2018-03-27T04:49:28.506Z,8.71
2018-03-27T04:50:28.518Z,8.67
2018-03-27T04:51:28.523Z,8.66
2018-03-27T04:52:28.567Z,8.64
2018-03-27T04:53:28.433Z,8.65
2018-03-27T04:54:28.436Z,8.66
2018-03-27T04:55:28.354Z,8.67
2018-03-27T04:56:28.454Z,8.69
2018-03-27T04:57:31.391Z,8.68
2018-03-27T04:58:28.463Z,8.67
2018-03-27T04:59:28.482Z,8.65
2018-03-27T05:00:28.498Z,8.58
2018-03-27T05:01:28.497Z,8.50
2018-03-27T05:02:28.905Z,8.43
2018-03-27T05:03:28.505Z,8.32
2018-03-27T05:04:28.509Z,8.23
2018-03-27T05:05:28.522Z,8.14
2018-03-27T05:06:28.529Z,8.08
2018-03-27T05:07:28.542Z,8.04
2018-03-27T05:08:28.541Z,8.03
2018-03-27T05:09:28.445Z,8.02
2018-03-27T05:10:28.459Z,8.02
2018-03-27T05:11:29.690Z,8.01
2018-03-27T05:12:28.472Z,7.97
2018-03-27T05:13:29.714Z,7.94
2018-03-27T05:14:28.484Z,7.92
2018-03-27T05:15:28.494Z,7.90
2018-03-27T05:16:28.511Z,7.90
2018-03-27T05:17:28.495Z,7.91
2018-03-27T05:18:28.518Z,7.94
2018-03-27T05:19:28.524Z,7.98
2018-03-27T05:20:31.125Z,7.99
2018-03-27T05:21:37.266Z,8.03
2018-03-27T05:22:28.548Z,8.06
2018-03-27T05:23:28.466Z,8.10
2018-03-27T05:24:28.449Z,8.13
2018-03-27T05:25:28.366Z,8.17
2018-03-27T05:26:28.404Z,8.19
2018-03-27T05:27:28.470Z,8.23
2018-03-27T05:28:28.372Z,8.27
2018-03-27T05:29:28.501Z,8.30
2018-03-27T05:30:28.393Z,8.33
2018-03-27T05:31:28.402Z,8.36
2018-03-27T05:32:28.714Z,8.39
2018-03-27T05:33:28.421Z,8.40
2018-03-27T05:34:28.525Z,8.42
2018-03-27T05:35:28.548Z,8.40
2018-03-27T05:36:28.543Z,8.41
2018-03-27T05:37:28.575Z,8.43
2018-03-27T05:38:28.559Z,8.45
2018-03-27T05:39:28.462Z,8.48
2018-03-27T05:40:28.466Z,8.50
2018-03-27T05:41:28.749Z,8.53
2018-03-27T05:42:28.490Z,8.55
2018-03-27T05:43:28.490Z,8.58
2018-03-27T05:44:28.495Z,8.63
2018-03-27T05:45:28.515Z,8.65
2018-03-27T05:46:28.521Z,8.69
2018-03-27T05:47:28.542Z,8.70
2018-03-27T05:48:28.529Z,8.72
2018-03-27T05:49:28.533Z,8.73
2018-03-27T05:50:28.539Z,8.75
2018-03-27T05:51:28.553Z,8.78
2018-03-27T05:52:28.546Z,8.79
2018-03-27T05:53:28.556Z,8.83
2018-03-27T05:54:28.466Z,8.86
2018-03-27T05:55:28.481Z,8.90
2018-03-27T05:56:28.482Z,8.94
2018-03-27T05:57:28.515Z,8.98
2018-03-27T05:58:28.493Z,9.02
2018-03-27T05:59:30.885Z,9.04
2018-03-27T06:00:28.512Z,9.07
2018-03-27T06:01:28.517Z,9.10
2018-03-27T06:02:28.514Z,9.14
2018-03-27T06:03:28.531Z,9.15
2018-03-27T06:04:28.546Z,9.19
2018-03-27T06:05:28.540Z,9.19
2018-03-27T06:06:28.549Z,9.21
2018-03-27T06:07:28.562Z,9.24
2018-03-27T06:08:28.565Z,9.28
2018-03-27T06:09:28.489Z,9.33
2018-03-27T06:10:28.478Z,9.39
2018-03-27T06:11:29.714Z,9.44
2018-03-27T06:12:28.490Z,9.49
2018-03-27T06:13:28.501Z,9.54
2018-03-27T06:14:28.510Z,9.59
2018-03-27T06:15:28.514Z,9.63
2018-03-27T06:16:28.521Z,9.69
2018-03-27T06:17:28.525Z,9.75
2018-03-27T06:18:28.538Z,9.83
2018-03-27T06:19:28.542Z,9.91
2018-03-27T06:20:28.552Z,9.97
2018-03-27T06:21:28.559Z,10.03
2018-03-27T06:22:28.566Z,10.09
2018-03-27T06:23:28.574Z,10.13
2018-03-27T06:24:28.494Z,10.21
2018-03-27T06:25:28.480Z,10.25
2018-03-27T06:26:28.490Z,10.30
2018-03-27T06:27:28.509Z,10.32
2018-03-27T06:28:28.504Z,10.35
2018-03-27T06:29:28.522Z,10.38
2018-03-27T06:30:28.524Z,10.43
2018-03-27T06:31:28.526Z,10.50
2018-03-27T06:32:28.533Z,10.57
2018-03-27T06:33:28.545Z,10.63
2018-03-27T06:34:28.549Z,10.71
2018-03-27T06:35:28.563Z,10.78
2018-03-27T06:36:28.566Z,10.83
2018-03-27T06:37:28.574Z,10.84
2018-03-27T06:38:28.582Z,10.87
2018-03-27T06:39:28.487Z,10.91
2018-03-27T06:40:28.497Z,10.94
2018-03-27T06:41:28.506Z,10.96
2018-03-27T06:42:28.507Z,11.00
2018-03-27T06:43:28.530Z,11.06
2018-03-27T06:44:28.514Z,11.11
2018-03-27T06:45:28.527Z,11.17
2018-03-27T06:46:28.547Z,11.22
2018-03-27T06:47:28.551Z,11.27
2018-03-27T06:48:28.550Z,11.23
2018-03-27T06:49:31.718Z,11.18
2018-03-27T06:50:29.577Z,11.17
2018-03-27T06:51:29.847Z,11.22
2018-03-27T06:52:29.869Z,11.31
2018-03-27T06:53:30.010Z,11.41
2018-03-27T06:54:29.848Z,11.52
2018-03-27T06:55:29.890Z,11.62
2018-03-27T06:56:28.817Z,11.77
2018-03-27T06:57:28.515Z,11.87
2018-03-27T06:58:28.134Z,12.06
2018-03-27T06:59:28.114Z,12.25
2018-03-27T07:00:28.137Z,12.41
2018-03-27T07:01:28.546Z,12.62
2018-03-27T07:02:28.555Z,12.83
2018-03-27T07:03:28.566Z,13.00
2018-03-27T07:04:28.562Z,13.09
2018-03-27T07:05:28.641Z,13.15
2018-03-27T07:06:28.580Z,13.22
2018-03-27T07:07:28.607Z,13.21
2018-03-27T07:08:28.594Z,13.08
2018-03-27T07:09:28.648Z,12.99
2018-03-27T07:10:28.538Z,12.82
2018-03-27T07:11:29.755Z,12.70
2018-03-27T07:12:28.539Z,12.56
2018-03-27T07:13:28.534Z,12.45
2018-03-27T07:14:28.568Z,12.29
2018-03-27T07:15:28.486Z,12.17
2018-03-27T07:16:28.549Z,12.08
2018-03-27T07:17:28.486Z,11.95
2018-03-27T07:18:28.573Z,11.94
2018-03-27T07:19:28.579Z,11.85
2018-03-27T07:20:28.606Z,11.79
2018-03-27T07:21:28.677Z,11.70
2018-03-27T07:22:28.586Z,11.66
2018-03-27T07:23:28.490Z,11.63
2018-03-27T07:24:28.518Z,11.52
2018-03-27T07:25:28.615Z,11.46
2018-03-27T07:26:31.494Z,11.39
2018-03-27T07:27:28.524Z,11.33
2018-03-27T07:28:28.546Z,11.30
2018-03-27T07:29:28.539Z,11.26
2018-03-27T07:30:28.555Z,11.27
2018-03-27T07:31:28.573Z,11.29
2018-03-27T07:32:28.478Z,11.32
2018-03-27T07:33:28.574Z,11.33
2018-03-27T07:34:28.681Z,11.24
2018-03-27T07:35:28.591Z,11.20
2018-03-27T07:36:31.226Z,11.26
2018-03-27T07:37:28.601Z,11.33
2018-03-27T07:38:28.611Z,11.35
2018-03-27T07:39:28.608Z,11.42
2018-03-27T07:40:28.519Z,11.49
2018-03-27T07:41:28.536Z,11.48
2018-03-27T07:42:28.528Z,11.43
2018-03-27T07:43:28.547Z,11.42
2018-03-27T07:44:28.554Z,11.41
2018-03-27T07:45:28.564Z,11.33
2018-03-27T07:46:28.562Z,11.28
2018-03-27T07:47:28.573Z,11.34
2018-03-27T07:48:28.645Z,11.37
2018-03-27T07:49:28.607Z,11.34
2018-03-27T07:50:28.597Z,11.30
2018-03-27T07:51:28.593Z,11.28
2018-03-27T07:52:28.611Z,11.24
2018-03-27T07:53:28.614Z,11.22
2018-03-27T07:54:28.621Z,11.21
2018-03-27T07:55:28.535Z,11.22
2018-03-27T07:56:28.651Z,11.29
2018-03-27T07:57:28.542Z,11.43
2018-03-27T07:58:28.557Z,11.59
2018-03-27T07:59:28.455Z,11.66
2018-03-27T08:00:28.568Z,11.68
2018-03-27T08:01:28.584Z,11.82
2018-03-27T08:02:28.578Z,11.94
2018-03-27T08:03:28.687Z,12.07
2018-03-27T08:04:28.591Z,12.18
2018-03-27T08:05:28.493Z,12.14
2018-03-27T08:06:28.605Z,12.13
2018-03-27T08:07:28.612Z,12.17
2018-03-27T08:08:28.638Z,12.23
2018-03-27T08:09:28.631Z,12.36
2018-03-27T08:10:28.535Z,12.45
2018-03-27T08:11:29.770Z,12.49
2018-03-27T08:12:31.053Z,12.60
2018-03-27T08:13:28.560Z,12.75
2018-03-27T08:14:28.553Z,12.86
2018-03-27T08:15:28.486Z,12.95
2018-03-27T08:16:28.480Z,13.03
2018-03-27T08:17:28.624Z,13.09
2018-03-27T08:18:28.706Z,13.17
2018-03-27T08:19:28.606Z,13.33
2018-03-27T08:20:28.612Z,13.51
2018-03-27T08:21:28.610Z,13.68
2018-03-27T08:22:28.617Z,13.92
2018-03-27T08:23:28.635Z,14.00
2018-03-27T08:24:28.682Z,14.05
2018-03-27T08:25:28.652Z,14.06
2018-03-27T08:26:28.444Z,14.01
2018-03-27T08:27:29.918Z,13.94
2018-03-27T08:28:28.558Z,13.71
2018-03-27T08:29:28.580Z,13.69
2018-03-27T08:30:28.589Z,13.72
2018-03-27T08:31:28.577Z,13.65
2018-03-27T08:32:28.604Z,13.56
2018-03-27T08:33:28.588Z,13.50
2018-03-27T08:34:28.605Z,13.51
2018-03-27T08:35:28.406Z,13.50
2018-03-27T08:36:28.520Z,13.68
2018-03-27T08:37:28.522Z,13.99
2018-03-27T08:38:28.448Z,14.02
2018-03-27T08:39:28.541Z,13.96
2018-03-27T08:40:28.658Z,13.98
2018-03-27T08:41:28.554Z,14.06
2018-03-27T08:42:28.453Z,14.07
2018-03-27T08:43:28.488Z,14.11
2018-03-27T08:44:28.596Z,13.98
2018-03-27T08:45:28.599Z,14.05
2018-03-27T08:46:28.591Z,14.06
2018-03-27T08:47:28.597Z,14.07
2018-03-27T08:48:28.610Z,14.23
2018-03-27T08:49:28.638Z,14.43
2018-03-27T08:50:28.619Z,14.47
2018-03-27T08:51:28.637Z,14.39
2018-03-27T08:52:28.635Z,14.37
2018-03-27T08:53:28.741Z,14.38
2018-03-27T08:54:28.661Z,14.43
2018-03-27T08:55:28.670Z,14.36
2018-03-27T08:56:29.473Z,14.31
2018-03-27T08:57:28.563Z,14.44
2018-03-27T08:58:28.586Z,14.65
2018-03-27T08:59:28.573Z,14.87
2018-03-27T09:00:31.266Z,15.04
2018-03-27T09:01:28.610Z,14.82
2018-03-27T09:02:28.592Z,14.65
2018-03-27T09:03:28.614Z,14.49
2018-03-27T09:04:28.626Z,14.48
2018-03-27T09:05:28.525Z,14.49
2018-03-27T09:06:28.627Z,14.66
2018-03-27T09:07:28.646Z,14.95
2018-03-27T09:08:31.508Z,15.11
2018-03-27T09:09:28.650Z,15.34
2018-03-27T09:10:28.648Z,15.65
2018-03-27T09:11:29.805Z,15.84
2018-03-27T09:12:28.569Z,15.95
2018-03-27T09:13:28.578Z,15.62
2018-03-27T09:14:28.594Z,15.28
2018-03-27T09:15:28.609Z,15.25
2018-03-27T09:16:28.605Z,15.45
2018-03-27T09:17:28.610Z,15.60
2018-03-27T09:18:28.606Z,15.75
2018-03-27T09:19:28.616Z,15.75
2018-03-27T09:20:28.629Z,15.69
2018-03-27T09:21:28.658Z,15.42
2018-03-27T09:22:28.679Z,15.24
2018-03-27T09:23:28.663Z,14.92
2018-03-27T09:24:28.663Z,14.69
2018-03-27T09:25:28.668Z,14.63
2018-03-27T09:26:31.293Z,14.61
2018-03-27T09:27:28.577Z,14.55
2018-03-27T09:28:28.580Z,14.50
2018-03-27T09:29:28.595Z,14.62
2018-03-27T09:30:28.607Z,14.89
2018-03-27T09:31:28.606Z,14.96
2018-03-27T09:32:28.623Z,14.73
2018-03-27T09:33:28.621Z,14.51
2018-03-27T09:34:28.629Z,14.36
2018-03-27T09:35:28.634Z,14.39
2018-03-27T09:36:28.654Z,14.49
2018-03-27T09:37:28.650Z,14.55
2018-03-27T09:38:28.662Z,14.64
2018-03-27T09:39:28.670Z,14.85
2018-03-27T09:40:28.682Z,15.12
2018-03-27T09:41:28.678Z,15.44
2018-03-27T09:42:28.694Z,15.83
2018-03-27T09:43:28.589Z,16.13
2018-03-27T09:44:28.595Z,16.27
2018-03-27T09:45:28.625Z,16.32
2018-03-27T09:46:28.624Z,16.43
2018-03-27T09:47:28.622Z,16.55
2018-03-27T09:48:28.666Z,16.61
2018-03-27T09:49:28.633Z,16.40
2018-03-27T09:50:28.645Z,16.28
2018-03-27T09:51:31.303Z,16.05
2018-03-27T09:52:28.667Z,15.80
2018-03-27T09:53:28.665Z,15.78
2018-03-27T09:54:28.678Z,15.77
2018-03-27T09:55:28.686Z,15.72
2018-03-27T09:56:28.680Z,15.58
2018-03-27T09:57:28.689Z,15.51
2018-03-27T09:58:28.637Z,15.58
2018-03-27T09:59:28.613Z,15.59
2018-03-27T10:00:28.618Z,15.62
2018-03-27T10:01:28.618Z,15.74
2018-03-27T10:02:28.628Z,15.72
2018-03-27T10:03:28.634Z,15.50
2018-03-27T10:04:31.318Z,15.42
2018-03-27T10:05:28.657Z,15.46
2018-03-27T10:06:28.663Z,15.48
2018-03-27T10:07:28.673Z,15.53
2018-03-27T10:08:28.678Z,15.37
2018-03-27T10:09:28.682Z,15.16
2018-03-27T10:10:28.694Z,14.99
2018-03-27T10:11:32.473Z,14.96
2018-03-27T10:12:28.706Z,15.06
2018-03-27T10:13:28.606Z,15.35
2018-03-27T10:14:28.618Z,15.69
2018-03-27T10:15:28.626Z,16.04
2018-03-27T10:16:28.626Z,16.29
2018-03-27T10:17:28.629Z,16.48
2018-03-27T10:18:28.650Z,16.63
2018-03-27T10:19:28.650Z,16.57
2018-03-27T10:20:28.662Z,16.38
2018-03-27T10:21:28.678Z,16.06
2018-03-27T10:22:28.770Z,15.83
2018-03-27T10:23:28.680Z,15.74
2018-03-27T10:24:28.698Z,15.84
2018-03-27T10:25:28.698Z,15.91
2018-03-27T10:26:28.708Z,15.93
2018-03-27T10:27:28.725Z,15.96
2018-03-27T10:28:28.735Z,15.94
2018-03-27T10:29:28.617Z,15.78
2018-03-27T10:30:28.519Z,15.70
2018-03-27T10:31:28.646Z,15.62
2018-03-27T10:32:28.646Z,15.65
2018-03-27T10:33:28.649Z,15.77
2018-03-27T10:34:28.663Z,15.81
2018-03-27T10:35:28.768Z,15.90
2018-03-27T10:36:28.703Z,15.90
2018-03-27T10:37:28.686Z,15.95
2018-03-27T10:38:28.704Z,16.14
2018-03-27T10:39:31.350Z,16.19
2018-03-27T10:40:28.696Z,16.18
2018-03-27T10:41:28.711Z,16.16
2018-03-27T10:42:28.719Z,16.05
2018-03-27T10:43:28.616Z,15.95
2018-03-27T10:44:28.665Z,15.91
2018-03-27T10:45:28.687Z,15.90
2018-03-27T10:46:28.642Z,15.85
2018-03-27T10:47:28.650Z,15.80
2018-03-27T10:48:28.652Z,15.77
2018-03-27T10:49:28.666Z,15.89
2018-03-27T10:50:28.568Z,16.05
2018-03-27T10:51:28.475Z,15.99
2018-03-27T10:52:28.682Z,15.79
2018-03-27T10:53:28.720Z,15.90
2018-03-27T10:54:28.695Z,15.93
2018-03-27T10:55:28.713Z,15.90
2018-03-27T10:56:28.711Z,15.93
2018-03-27T10:57:28.737Z,15.82
2018-03-27T10:58:28.726Z,15.69
2018-03-27T10:59:28.743Z,15.63
2018-03-27T11:00:28.650Z,15.56
2018-03-27T11:01:28.648Z,15.71
2018-03-27T11:02:28.657Z,15.91
2018-03-27T11:03:28.566Z,15.94
2018-03-27T11:04:28.672Z,15.87
2018-03-27T11:05:28.679Z,15.70
2018-03-27T11:06:28.710Z,15.50
2018-03-27T11:07:28.699Z,15.31
2018-03-27T11:08:28.703Z,15.08
2018-03-27T11:09:28.712Z,14.96
2018-03-27T11:10:30.869Z,14.86
2018-03-27T11:11:29.855Z,14.87
2018-03-27T11:12:28.720Z,14.95
2018-03-27T11:13:28.743Z,15.21
2018-03-27T11:14:29.738Z,15.36
2018-03-27T11:15:29.639Z,15.35
2018-03-27T11:16:30.890Z,15.47
2018-03-27T11:17:29.345Z,15.52
2018-03-27T11:18:30.201Z,15.46
2018-03-27T11:19:29.668Z,15.48
2018-03-27T11:20:29.872Z,15.44
2018-03-27T11:21:30.017Z,15.36
2018-03-27T11:22:29.876Z,15.26
2018-03-27T11:23:29.848Z,15.19
2018-03-27T11:24:29.858Z,15.14
2018-03-27T11:25:29.751Z,15.07
2018-03-27T11:26:29.619Z,15.05
2018-03-27T11:27:29.985Z,14.99
2018-03-27T11:28:29.914Z,14.91
2018-03-27T11:29:30.008Z,14.93
2018-03-27T11:30:30.110Z,14.95
2018-03-27T11:31:30.177Z,14.92
2018-03-27T11:32:30.123Z,14.83
2018-03-27T11:33:29.811Z,14.83
2018-03-27T11:34:29.723Z,14.92
2018-03-27T11:35:29.797Z,15.10
2018-03-27T11:36:29.826Z,15.26
2018-03-27T11:37:29.665Z,15.41
2018-03-27T11:38:29.923Z,15.66
2018-03-27T11:39:29.862Z,15.75
2018-03-27T11:40:29.698Z,15.79
2018-03-27T11:41:29.826Z,15.78
2018-03-27T11:42:29.828Z,15.70
2018-03-27T11:43:29.751Z,15.50
2018-03-27T11:44:29.444Z,15.29
2018-03-27T11:45:29.933Z,15.15
2018-03-27T11:46:29.661Z,15.11
2018-03-27T11:47:29.559Z,15.26
2018-03-27T11:48:29.848Z,15.46
2018-03-27T11:49:29.756Z,15.47
2018-03-27T11:50:29.683Z,15.37
2018-03-27T11:51:30.130Z,15.26
2018-03-27T11:52:30.428Z,15.17
2018-03-27T11:53:30.055Z,15.14
2018-03-27T11:54:30.177Z,15.11
2018-03-27T11:55:30.044Z,15.07
2018-03-27T11:56:30.000Z,15.08
2018-03-27T11:57:29.896Z,14.99
2018-03-27T11:58:29.597Z,14.88
2018-03-27T11:59:29.483Z,14.83
2018-03-27T12:00:29.623Z,14.84
2018-03-27T12:01:29.746Z,14.77
2018-03-27T12:02:29.630Z,14.78
2018-03-27T12:03:29.547Z,14.79
2018-03-27T12:04:29.633Z,14.75
2018-03-27T12:05:29.434Z,14.73
2018-03-27T12:06:29.623Z,14.82
2018-03-27T12:07:29.743Z,15.05
2018-03-27T12:08:28.725Z,15.27
2018-03-27T12:09:28.529Z,15.31
2018-03-27T12:10:28.633Z,15.28
2018-03-27T12:11:29.773Z,15.32
2018-03-27T12:12:28.758Z,15.30
2018-03-27T12:13:28.768Z,15.39
2018-03-27T12:14:28.766Z,15.37
2018-03-27T12:15:28.674Z,15.23
2018-03-27T12:16:28.681Z,15.30
2018-03-27T12:17:28.691Z,15.35
2018-03-27T12:18:28.694Z,15.50
2018-03-27T12:19:28.702Z,15.73
2018-03-27T12:20:28.722Z,15.77
2018-03-27T12:21:28.718Z,15.66
2018-03-27T12:22:28.735Z,15.37
2018-03-27T12:23:28.742Z,15.13
2018-03-27T12:24:28.743Z,15.10
2018-03-27T12:25:28.747Z,15.13
2018-03-27T12:26:28.761Z,15.34
2018-03-27T12:27:28.763Z,15.55
2018-03-27T12:28:28.774Z,15.66
2018-03-27T12:29:28.785Z,15.64
2018-03-27T12:30:28.687Z,15.47
2018-03-27T12:31:28.694Z,15.30
2018-03-27T12:32:28.801Z,15.30
2018-03-27T12:33:28.714Z,15.32
2018-03-27T12:34:28.715Z,15.36
2018-03-27T12:35:28.722Z,15.28
2018-03-27T12:36:29.555Z,15.15
2018-03-27T12:37:29.808Z,15.14
2018-03-27T12:38:29.315Z,15.26
2018-03-27T12:39:29.642Z,15.52
2018-03-27T12:40:29.814Z,15.68
2018-03-27T12:41:29.785Z,15.77
2018-03-27T12:42:29.608Z,15.72
2018-03-27T12:43:29.875Z,15.59
2018-03-27T12:44:29.672Z,15.56
2018-03-27T12:45:29.727Z,15.50
2018-03-27T12:46:29.897Z,15.37
2018-03-27T12:47:28.697Z,15.37
2018-03-27T12:48:28.715Z,15.44
2018-03-27T12:49:28.331Z,15.61
2018-03-27T12:50:28.726Z,15.65
2018-03-27T12:51:28.743Z,15.56
2018-03-27T12:52:28.841Z,15.45
2018-03-27T12:53:28.755Z,15.49
2018-03-27T12:54:28.760Z,15.60
2018-03-27T12:55:28.778Z,15.66
2018-03-27T12:56:28.782Z,15.62
2018-03-27T12:57:28.783Z,15.47
2018-03-27T12:58:28.790Z,15.42
2018-03-27T12:59:28.745Z,15.47
2018-03-27T13:00:28.698Z,15.49
2018-03-27T13:01:28.607Z,15.48
2018-03-27T13:02:28.718Z,15.44
2018-03-27T13:03:28.623Z,15.39